Time;durP1;ratioP1;P1;durP2;ratioP2;P2;SDS_P1;SDS_P2;PMS_P1;PMS_P2;Temp;Humidity;BMP_temperature;BMP_pressure;BME280_temperature;BME280_humidity;BME280_pressure;Samples;Min_cycle;Max_cycle;Signal;HPM_P1;HPM_P2
2023/11/30 00:01:00;;;;;;;17.88;9.90;;;0.50;99.90;;;;;;5032964;28;20198;-60
2023/11/30 00:03:27;;;;;;;15.25;10.00;;;0.50;99.90;;;;;;5033036;28;20195;-60
2023/11/30 00:05:55;;;;;;;14.65;10.38;;;0.50;99.90;;;;;;5032994;28;20198;-60
2023/11/30 00:08:22;;;;;;;15.43;9.45;;;0.50;99.90;;;;;;5032904;28;20213;-60
2023/11/30 00:10:49;;;;;;;13.15;10.15;;;0.50;99.90;;;;;;5033000;28;20205;-61
2023/11/30 00:13:15;;;;;;;13.32;9.32;;;0.50;99.90;;;;;;5033475;28;20202;-60
2023/11/30 00:15:42;;;;;;;11.82;9.48;;;0.50;99.90;;;;;;5033065;28;20202;-60
2023/11/30 00:18:09;;;;;;;15.43;10.63;;;0.50;99.90;;;;;;5032706;28;20222;-60
2023/11/30 00:20:36;;;;;;;15.60;9.77;;;0.50;99.90;;;;;;5033611;28;20213;-60
2023/11/30 00:23:04;;;;;;;14.27;10.35;;;0.50;99.90;;;;;;5032885;28;20224;-59
2023/11/30 00:25:32;;;;;;;15.23;11.02;;;0.50;99.90;;;;;;5033157;28;20203;-59
2023/11/30 00:27:59;;;;;;;15.15;10.10;;;0.50;99.90;;;;;;5034628;28;20670;-59
2023/11/30 00:30:26;;;;;;;13.80;8.60;;;0.50;99.90;;;;;;5037093;28;20676;-59
2023/11/30 00:32:53;;;;;;;14.18;10.00;;;0.50;99.90;;;;;;5036441;28;20708;-60
2023/11/30 00:35:20;;;;;;;11.27;9.00;;;0.60;99.90;;;;;;5036457;28;20571;-59
2023/11/30 00:37:46;;;;;;;13.32;10.07;;;0.60;99.90;;;;;;5036499;28;20218;-60
2023/11/30 00:40:15;;;;;;;11.80;8.98;;;0.60;99.90;;;;;;5036718;28;20198;-59
2023/11/30 00:42:41;;;;;;;15.48;9.80;;;0.60;99.90;;;;;;5036685;28;20222;-59
2023/11/30 00:45:10;;;;;;;14.15;9.43;;;0.60;99.90;;;;;;5036567;28;20202;-59
2023/11/30 00:47:37;;;;;;;14.40;9.73;;;0.60;99.90;;;;;;5036367;28;20726;-60
2023/11/30 00:50:04;;;;;;;13.85;9.25;;;0.60;99.90;;;;;;5036332;28;20694;-61
2023/11/30 00:52:31;;;;;;;11.93;9.93;;;0.60;99.90;;;;;;5036673;28;20266;-60
2023/11/30 00:54:58;;;;;;;12.70;9.18;;;0.60;99.90;;;;;;5036007;28;20202;-59
2023/11/30 00:57:26;;;;;;;12.40;8.48;;;0.60;99.90;;;;;;5036125;28;20225;-60
2023/11/30 00:59:52;;;;;;;11.15;8.40;;;0.60;99.90;;;;;;5035902;28;20695;-59
2023/11/30 01:02:19;;;;;;;11.27;8.45;;;0.60;99.90;;;;;;5035742;28;20234;-60
2023/11/30 01:04:46;;;;;;;11.40;8.93;;;0.60;99.90;;;;;;5035749;28;20202;-59
2023/11/30 01:07:13;;;;;;;12.57;9.02;;;0.60;99.90;;;;;;5036188;28;20205;-60
2023/11/30 01:09:39;;;;;;;11.30;8.52;;;0.60;99.90;;;;;;5035550;28;20206;-59
2023/11/30 01:12:07;;;;;;;12.02;8.95;;;0.60;99.90;;;;;;5035758;28;20218;-59
2023/11/30 01:14:35;;;;;;;11.85;9.18;;;0.60;99.90;;;;;;5036079;28;20629;-60
2023/11/30 01:17:02;;;;;;;9.98;8.55;;;0.60;99.90;;;;;;5035428;28;20289;-61
2023/11/30 01:19:29;;;;;;;13.32;9.30;;;0.60;99.90;;;;;;5035916;28;20208;-59
2023/11/30 01:21:56;;;;;;;11.98;8.75;;;0.60;99.90;;;;;;5035687;28;20222;-59
2023/11/30 01:24:23;;;;;;;12.02;8.55;;;0.60;99.90;;;;;;5035700;28;20218;-58
2023/11/30 01:26:50;;;;;;;11.80;8.52;;;0.50;99.90;;;;;;5035770;28;20203;-60
2023/11/30 01:29:17;;;;;;;14.43;9.38;;;0.50;99.90;;;;;;5035851;28;20202;-61
2023/11/30 01:31:45;;;;;;;12.77;9.68;;;0.40;99.90;;;;;;5035848;28;20226;-60
2023/11/30 01:34:11;;;;;;;13.80;9.85;;;0.30;99.90;;;;;;5035703;28;20198;-61
2023/11/30 01:36:38;;;;;;;11.98;7.80;;;0.20;99.90;;;;;;5035557;28;20210;-60
2023/11/30 01:39:05;;;;;;;13.95;10.40;;;0.20;99.90;;;;;;5036283;28;20228;-60
2023/11/30 01:41:32;;;;;;;15.95;9.48;;;0.10;99.90;;;;;;5036983;28;20229;-61
2023/11/30 01:43:58;;;;;;;14.60;9.73;;;0.10;99.90;;;;;;5035527;28;20203;-59
2023/11/30 01:46:25;;;;;;;12.68;9.52;;;0.00;99.90;;;;;;5035409;28;20202;-61
2023/11/30 01:48:53;;;;;;;15.85;9.23;;;-0.10;99.90;;;;;;5035450;28;20194;-62
2023/11/30 01:51:21;;;;;;;13.52;8.93;;;-0.10;99.90;;;;;;5035134;28;20223;-60
2023/11/30 01:53:48;;;;;;;14.25;9.80;;;-0.10;99.90;;;;;;5035175;28;20302;-61
2023/11/30 01:56:16;;;;;;;14.63;9.95;;;-0.20;99.90;;;;;;5035438;28;20202;-60
2023/11/30 01:58:43;;;;;;;12.60;8.15;;;-0.20;99.90;;;;;;5035003;28;20222;-61
2023/11/30 02:01:10;;;;;;;12.00;8.25;;;-0.30;99.90;;;;;;5035088;28;20232;-60
2023/11/30 02:03:37;;;;;;;12.30;8.80;;;-0.30;99.90;;;;;;5034846;28;20186;-59
2023/11/30 02:06:06;;;;;;;12.57;8.77;;;-0.40;99.90;;;;;;5034695;28;20214;-61
2023/11/30 02:08:33;;;;;;;12.18;9.10;;;-0.40;99.90;;;;;;5035040;28;20199;-60
2023/11/30 02:10:59;;;;;;;12.98;9.18;;;-0.40;99.90;;;;;;5034679;28;20583;-60
2023/11/30 02:13:26;;;;;;;13.18;10.25;;;-0.50;99.90;;;;;;5034942;28;20206;-60
2023/11/30 02:15:53;;;;;;;11.77;8.52;;;-0.50;99.90;;;;;;5034610;28;20207;-61
2023/11/30 02:18:20;;;;;;;14.60;9.68;;;-0.60;99.90;;;;;;5034665;28;20230;-60
2023/11/30 02:20:47;;;;;;;12.95;8.70;;;-0.60;99.90;;;;;;5034528;28;20199;-59
2023/11/30 02:23:15;;;;;;;16.15;8.50;;;-0.70;99.90;;;;;;5034732;28;20198;-59
2023/11/30 02:25:42;;;;;;;13.70;9.68;;;-0.70;99.90;;;;;;5034550;28;20207;-61
2023/11/30 02:28:08;;;;;;;14.32;10.38;;;-0.80;99.90;;;;;;5034442;28;20260;-59
2023/11/30 02:30:38;;;;;;;11.18;8.20;;;-0.80;99.90;;;;;;5034125;28;20217;-59
2023/11/30 02:33:04;;;;;;;14.52;8.73;;;-0.80;99.90;;;;;;5034366;28;20226;-59
2023/11/30 02:35:31;;;;;;;16.23;9.88;;;-0.80;99.90;;;;;;5034135;28;20206;-59
2023/11/30 02:37:58;;;;;;;13.23;8.25;;;-0.80;99.90;;;;;;5034634;28;20218;-59
2023/11/30 02:40:26;;;;;;;13.50;9.35;;;-0.90;99.90;;;;;;5034224;28;20202;-60
2023/11/30 02:42:53;;;;;;;14.70;9.75;;;-0.90;99.90;;;;;;5034126;28;20230;-59
2023/11/30 02:45:19;;;;;;;15.20;9.57;;;-0.90;99.90;;;;;;5034597;28;20249;-59
2023/11/30 02:47:46;;;;;;;15.32;10.00;;;-0.90;99.90;;;;;;5033905;28;20209;-59
2023/11/30 02:50:13;;;;;;;14.30;8.57;;;-0.90;99.90;;;;;;5034029;28;20563;-59
2023/11/30 02:52:40;;;;;;;13.10;9.68;;;-0.90;99.90;;;;;;5032938;28;20263;-59
2023/11/30 02:55:06;;;;;;;14.02;8.73;;;-1.00;99.90;;;;;;5034709;28;20203;-59
2023/11/30 02:57:35;;;;;;;14.38;8.88;;;-1.00;99.90;;;;;;5033978;28;20570;-59
2023/11/30 03:00:02;;;;;;;13.88;9.13;;;-1.00;99.90;;;;;;5034214;28;20198;-61
2023/11/30 03:02:28;;;;;;;14.40;9.50;;;-1.10;99.90;;;;;;5058067;22;20226;-63
2023/11/30 03:04:55;;;;;;;12.80;9.10;;;-1.10;99.90;;;;;;5035917;28;20213;-62
2023/11/30 03:07:22;;;;;;;10.43;8.40;;;-1.20;99.90;;;;;;5036015;28;20209;-61
2023/11/30 03:09:49;;;;;;;11.98;7.68;;;-1.20;99.90;;;;;;5035899;28;20203;-62
2023/11/30 03:12:15;;;;;;;10.13;7.38;;;-1.30;99.90;;;;;;5035459;28;20222;-61
2023/11/30 03:14:46;;;;;;;11.80;8.43;;;-1.30;99.90;;;;;;5035177;28;20578;-62
2023/11/30 03:17:13;;;;;;;10.95;7.82;;;-1.30;99.90;;;;;;5035645;28;20191;-63
2023/11/30 03:19:40;;;;;;;11.07;8.10;;;-1.30;99.90;;;;;;5035012;28;20763;-62
2023/11/30 03:22:07;;;;;;;14.40;9.68;;;-1.30;99.90;;;;;;5035439;28;20235;-62
2023/11/30 03:24:34;;;;;;;11.10;7.90;;;-1.40;99.90;;;;;;5035893;28;20203;-63
2023/11/30 03:27:00;;;;;;;11.48;7.45;;;-1.40;99.90;;;;;;5035147;28;20206;-62
2023/11/30 03:29:27;;;;;;;16.67;9.60;;;-1.50;99.90;;;;;;5034981;28;20202;-63
2023/11/30 03:31:55;;;;;;;12.73;8.27;;;-1.50;99.90;;;;;;5034845;28;20734;-63
2023/11/30 03:34:22;;;;;;;13.45;8.70;;;-1.60;99.90;;;;;;5035332;28;20209;-63
2023/11/30 03:36:49;;;;;;;17.70;8.35;;;-1.60;99.90;;;;;;5034708;28;20202;-62
2023/11/30 03:39:16;;;;;;;15.85;9.43;;;-1.60;99.90;;;;;;5035000;28;20309;-62
2023/11/30 03:41:42;;;;;;;15.60;9.77;;;-1.60;99.90;;;;;;5034570;28;20228;-63
2023/11/30 03:44:09;;;;;;;14.18;8.50;;;-1.60;99.90;;;;;;5036971;28;20289;-63
2023/11/30 03:46:37;;;;;;;14.00;8.70;;;-1.60;99.90;;;;;;5039104;28;20226;-62
2023/11/30 03:49:05;;;;;;;14.35;8.40;;;-1.70;99.90;;;;;;5038145;28;20198;-63
2023/11/30 03:51:32;;;;;;;13.45;8.52;;;-1.70;99.90;;;;;;5035829;28;20728;-62
2023/11/30 03:53:58;;;;;;;12.88;7.93;;;-1.70;99.90;;;;;;5034345;28;20575;-63
2023/11/30 03:56:25;;;;;;;16.23;10.25;;;-1.70;99.90;;;;;;5035168;28;20309;-63
2023/11/30 03:58:52;;;;;;;14.63;7.95;;;-1.70;99.90;;;;;;5037377;28;20232;-62
2023/11/30 04:01:22;;;;;;;16.85;8.93;;;-1.70;99.90;;;;;;5037675;28;20230;-62
2023/11/30 04:03:49;;;;;;;15.18;9.68;;;-1.70;99.90;;;;;;5036876;28;20202;-63
2023/11/30 04:06:20;;;;;;;14.75;8.40;;;-1.70;99.90;;;;;;5034115;28;20214;-63
2023/11/30 04:08:47;;;;;;;11.52;8.55;;;-1.80;99.90;;;;;;5033725;28;20187;-62
2023/11/30 04:12:41;;;;;;;13.57;8.85;;;-1.80;99.90;;;;;;5111408;27;20551;-62
2023/11/30 04:15:09;;;;;;;11.30;8.25;;;-1.80;99.90;;;;;;5111242;28;20199;-62
2023/11/30 04:17:36;;;;;;;12.90;9.30;;;-1.80;99.90;;;;;;5111361;28;20196;-62
2023/11/30 04:20:04;;;;;;;16.85;9.27;;;-1.80;99.90;;;;;;5111298;28;20206;-63
2023/11/30 04:22:30;;;;;;;13.75;9.20;;;-1.90;99.90;;;;;;5110946;28;20215;-62
2023/11/30 04:24:57;;;;;;;14.57;8.85;;;-1.90;99.90;;;;;;5088632;22;20229;-59
2023/11/30 04:27:24;;;;;;;13.35;8.95;;;-1.90;99.90;;;;;;5049976;28;20202;-59
2023/11/30 04:29:52;;;;;;;15.55;9.63;;;-1.90;99.90;;;;;;5049825;28;20201;-58
2023/11/30 04:32:19;;;;;;;14.65;9.15;;;-1.90;99.90;;;;;;5049638;28;20225;-59
2023/11/30 04:34:45;;;;;;;17.50;8.57;;;-1.90;99.90;;;;;;5049647;28;20222;-59
2023/11/30 04:37:12;;;;;;;19.17;10.60;;;-1.90;99.90;;;;;;5049536;28;20205;-60
2023/11/30 04:39:39;;;;;;;12.88;9.23;;;-1.90;99.90;;;;;;5049601;28;20201;-60
2023/11/30 04:42:06;;;;;;;17.98;10.60;;;-1.90;99.90;;;;;;5049770;28;20198;-59
2023/11/30 04:44:33;;;;;;;17.15;9.02;;;-1.90;99.90;;;;;;5048915;28;20606;-59
2023/11/30 04:47:01;;;;;;;14.32;9.65;;;-1.90;99.90;;;;;;5049729;28;20202;-59
2023/11/30 04:49:28;;;;;;;16.73;10.25;;;-2.00;99.90;;;;;;5049382;28;20208;-60
2023/11/30 04:51:55;;;;;;;15.60;10.18;;;-2.00;99.90;;;;;;5049376;28;20244;-58
2023/11/30 04:54:21;;;;;;;12.82;8.73;;;-2.00;99.90;;;;;;5049122;28;20248;-59
2023/11/30 04:56:48;;;;;;;19.02;10.65;;;-2.00;99.90;;;;;;5048848;28;20668;-60
2023/11/30 04:59:15;;;;;;;15.90;10.55;;;-2.00;99.90;;;;;;5049193;28;20209;-60
2023/11/30 05:01:42;;;;;;;16.33;10.80;;;-2.00;99.90;;;;;;5049377;28;20198;-60
2023/11/30 05:04:10;;;;;;;13.77;9.75;;;-2.00;99.90;;;;;;5049219;28;20218;-61
2023/11/30 05:06:37;;;;;;;12.13;9.10;;;-2.00;99.90;;;;;;5049121;28;20201;-60
2023/11/30 05:09:05;;;;;;;17.75;10.57;;;-2.00;99.90;;;;;;5049070;28;20198;-60
2023/11/30 05:11:32;;;;;;;15.73;9.43;;;-2.00;99.90;;;;;;5049126;28;20590;-60
2023/11/30 05:13:59;;;;;;;16.90;10.48;;;-2.00;99.90;;;;;;5048914;28;20222;-59
2023/11/30 05:16:26;;;;;;;17.25;9.60;;;-2.00;99.90;;;;;;5048731;28;20238;-60
2023/11/30 05:18:53;;;;;;;22.00;10.57;;;-2.00;99.90;;;;;;5048702;28;20699;-60
2023/11/30 05:21:21;;;;;;;16.63;10.57;;;-2.00;99.90;;;;;;5048569;28;20676;-60
2023/11/30 05:23:48;;;;;;;16.63;9.75;;;-2.10;99.90;;;;;;5036381;28;20230;-59
2023/11/30 05:26:15;;;;;;;18.95;10.77;;;-2.00;99.90;;;;;;5035813;28;20187;-60
2023/11/30 05:28:41;;;;;;;16.88;10.45;;;-2.00;99.90;;;;;;5035862;28;20209;-60
2023/11/30 05:31:08;;;;;;;13.95;9.43;;;-2.00;99.90;;;;;;5035617;28;20226;-60
2023/11/30 05:33:35;;;;;;;16.45;9.93;;;-2.10;99.90;;;;;;5036462;28;20579;-61
2023/11/30 05:36:02;;;;;;;18.23;10.10;;;-2.10;99.90;;;;;;5035394;28;20229;-61
2023/11/30 05:38:30;;;;;;;17.48;10.05;;;-2.10;99.90;;;;;;5035083;28;20204;-60
2023/11/30 05:40:57;;;;;;;18.58;10.80;;;-2.10;99.90;;;;;;5035596;28;20194;-60
2023/11/30 05:43:23;;;;;;;19.52;10.73;;;-2.10;99.90;;;;;;5035022;28;20681;-61
2023/11/30 05:45:50;;;;;;;17.73;12.68;;;-2.10;99.90;;;;;;5035294;28;20207;-60
2023/11/30 05:48:17;;;;;;;16.75;12.15;;;-2.10;99.90;;;;;;5036373;28;20205;-60
2023/11/30 05:50:43;;;;;;;18.95;12.13;;;-2.10;99.90;;;;;;5036156;28;20213;-60
2023/11/30 05:53:10;;;;;;;18.35;11.00;;;-2.10;99.90;;;;;;5035884;28;20198;-61
2023/11/30 05:55:38;;;;;;;20.23;10.50;;;-2.10;99.90;;;;;;5035399;28;20218;-60
2023/11/30 05:58:05;;;;;;;19.88;11.10;;;-2.10;99.90;;;;;;5035339;28;20202;-60
2023/11/30 06:00:32;;;;;;;17.55;10.48;;;-2.10;99.90;;;;;;5035323;28;20229;-60
2023/11/30 06:02:59;;;;;;;20.48;10.43;;;-2.10;99.90;;;;;;5035100;28;20194;-60
2023/11/30 06:05:25;;;;;;;18.73;11.82;;;-2.10;99.90;;;;;;5035232;28;20264;-59
2023/11/30 06:07:52;;;;;;;17.45;11.90;;;-2.10;99.90;;;;;;5034955;28;20680;-60
2023/11/30 06:10:19;;;;;;;18.80;11.35;;;-2.10;99.90;;;;;;5034729;28;20209;-60
2023/11/30 06:12:47;;;;;;;24.17;11.27;;;-2.10;99.90;;;;;;5034608;28;20228;-60
2023/11/30 06:15:14;;;;;;;18.17;11.55;;;-2.10;99.90;;;;;;5034720;28;20596;-60
2023/11/30 06:17:41;;;;;;;21.63;11.60;;;-2.10;99.90;;;;;;5034741;28;20204;-60
2023/11/30 06:20:10;;;;;;;19.40;11.30;;;-2.10;99.90;;;;;;5035199;28;20202;-61
2023/11/30 06:22:37;;;;;;;28.70;12.23;;;-2.10;99.90;;;;;;5034240;28;20202;-61
2023/11/30 06:25:04;;;;;;;26.27;12.68;;;-2.10;99.90;;;;;;5034017;28;20320;-60
2023/11/30 06:27:31;;;;;;;19.88;11.55;;;-2.10;99.90;;;;;;5034347;28;20202;-60
2023/11/30 06:29:59;;;;;;;21.63;12.82;;;-2.20;99.90;;;;;;5034487;28;20202;-59
2023/11/30 06:32:26;;;;;;;21.90;11.82;;;-2.10;99.90;;;;;;5034256;28;20320;-61
2023/11/30 06:34:53;;;;;;;22.35;13.20;;;-2.10;99.90;;;;;;5033109;28;20226;-60
2023/11/30 06:37:19;;;;;;;19.10;11.95;;;-2.10;99.90;;;;;;5034791;28;20198;-61
2023/11/30 06:39:46;;;;;;;23.55;13.05;;;-2.00;99.90;;;;;;5034550;28;20208;-61
2023/11/30 06:42:13;;;;;;;26.02;13.25;;;-2.00;99.90;;;;;;5034764;28;20202;-61
2023/11/30 06:44:43;;;;;;;25.10;13.85;;;-2.00;99.90;;;;;;5034852;28;20313;-60
2023/11/30 06:47:12;;;;;;;22.00;13.32;;;-1.90;99.90;;;;;;5033933;28;20278;-60
2023/11/30 06:49:39;;;;;;;24.95;14.15;;;-1.80;99.90;;;;;;5034101;28;20209;-61
2023/11/30 06:52:06;;;;;;;22.00;12.90;;;-1.80;99.90;;;;;;5033527;28;20222;-60
2023/11/30 06:54:33;;;;;;;19.60;12.27;;;-1.70;99.90;;;;;;5033533;28;20233;-59
2023/11/30 06:57:00;;;;;;;21.45;12.15;;;-1.70;99.90;;;;;;5033962;28;20665;-61
2023/11/30 06:59:26;;;;;;;26.88;12.60;;;-1.70;99.90;;;;;;5033730;28;20206;-59
2023/11/30 07:01:53;;;;;;;24.85;14.25;;;-1.60;99.90;;;;;;5033995;28;20199;-59
2023/11/30 07:04:21;;;;;;;23.52;13.45;;;-1.60;99.90;;;;;;5033316;28;20711;-59
2023/11/30 07:06:48;;;;;;;27.67;14.02;;;-1.60;99.90;;;;;;5033382;28;20699;-60
2023/11/30 07:09:15;;;;;;;23.35;13.80;;;-1.60;99.90;;;;;;5033552;28;20202;-60
2023/11/30 07:11:42;;;;;;;29.17;14.77;;;-1.60;99.90;;;;;;5033450;28;20226;-60
2023/11/30 07:14:09;;;;;;;26.42;14.80;;;-1.60;99.90;;;;;;5033166;28;20223;-60
2023/11/30 07:16:36;;;;;;;22.25;12.88;;;-1.60;99.90;;;;;;5033574;28;20207;-60
2023/11/30 07:19:03;;;;;;;23.75;13.45;;;-1.60;99.90;;;;;;5033468;28;20300;-60
2023/11/30 07:21:31;;;;;;;25.33;13.43;;;-1.50;99.90;;;;;;5035297;28;20205;-60
2023/11/30 07:23:59;;;;;;;27.05;14.18;;;-1.50;99.90;;;;;;5033160;28;20234;-60
2023/11/30 07:26:26;;;;;;;33.95;16.70;;;-1.50;99.90;;;;;;5033183;28;20230;-61
2023/11/30 07:28:53;;;;;;;24.33;14.35;;;-1.60;99.90;;;;;;5033353;28;20214;-60
2023/11/30 07:31:20;;;;;;;28.30;13.80;;;-1.50;99.90;;;;;;5033298;28;20209;-60
2023/11/30 07:33:47;;;;;;;23.92;14.70;;;-1.50;99.90;;;;;;5033263;28;20316;-60
2023/11/30 07:36:15;;;;;;;28.85;15.55;;;-1.40;99.90;;;;;;5032940;28;20723;-60
2023/11/30 07:38:43;;;;;;;27.63;14.98;;;-1.30;99.90;;;;;;5033234;28;20264;-61
2023/11/30 07:41:11;;;;;;;29.25;15.77;;;-1.30;99.90;;;;;;5033966;28;20207;-61
2023/11/30 07:43:38;;;;;;;25.75;14.88;;;-1.20;99.90;;;;;;5033310;28;20194;-60
2023/11/30 07:46:05;;;;;;;27.08;14.80;;;-1.20;99.90;;;;;;5032684;28;20198;-60
2023/11/30 07:48:32;;;;;;;34.10;16.85;;;-1.20;99.90;;;;;;5032416;28;20206;-60
2023/11/30 07:50:59;;;;;;;28.42;16.05;;;-1.10;99.90;;;;;;5032542;28;20285;-60
2023/11/30 07:53:26;;;;;;;26.75;15.70;;;-1.10;99.90;;;;;;5033309;28;20629;-61
2023/11/30 07:55:56;;;;;;;24.60;14.88;;;-1.00;99.90;;;;;;5032962;28;20257;-60
2023/11/30 07:58:23;;;;;;;26.67;14.90;;;-1.00;99.90;;;;;;5032547;28;20672;-60
2023/11/30 08:00:51;;;;;;;29.42;17.65;;;-1.00;99.90;;;;;;5032852;28;20293;-60
2023/11/30 08:03:17;;;;;;;25.88;15.50;;;-0.90;99.90;;;;;;5033056;28;20198;-60
2023/11/30 08:05:44;;;;;;;30.77;17.13;;;-0.80;99.90;;;;;;5032814;28;20226;-61
2023/11/30 08:08:12;;;;;;;26.27;14.70;;;-0.80;99.90;;;;;;5033011;28;20297;-60
2023/11/30 08:10:39;;;;;;;29.33;15.27;;;-0.70;99.90;;;;;;5032591;28;20202;-60
2023/11/30 08:13:09;;;;;;;27.83;17.27;;;-0.70;99.90;;;;;;5032878;28;20226;-60
2023/11/30 08:15:35;;;;;;;27.05;17.30;;;-0.60;99.90;;;;;;5032715;28;20230;-61
2023/11/30 08:18:02;;;;;;;25.30;15.70;;;-0.60;99.90;;;;;;5032830;28;20250;-61
2023/11/30 08:20:29;;;;;;;29.55;15.88;;;-0.60;99.90;;;;;;5033215;28;20202;-60
2023/11/30 08:22:56;;;;;;;25.67;15.52;;;-0.50;99.90;;;;;;5034856;28;20201;-60
2023/11/30 08:25:23;;;;;;;28.40;16.10;;;-0.50;99.90;;;;;;5034036;28;20230;-61
2023/11/30 08:27:51;;;;;;;27.45;14.70;;;-0.50;99.90;;;;;;5034564;28;20202;-60
2023/11/30 08:30:19;;;;;;;24.20;15.55;;;-0.40;99.90;;;;;;5033594;28;20229;-60
2023/11/30 08:32:46;;;;;;;24.67;15.18;;;-0.40;99.90;;;;;;5032893;28;20223;-60
2023/11/30 08:35:13;;;;;;;28.75;16.60;;;-0.40;99.90;;;;;;5032493;28;20248;-60
2023/11/30 08:37:39;;;;;;;28.20;16.17;;;-0.30;99.90;;;;;;5032171;28;20202;-60
2023/11/30 08:40:10;;;;;;;23.42;14.27;;;-0.30;99.90;;;;;;5032235;28;20206;-61
2023/11/30 08:42:37;;;;;;;26.90;16.20;;;-0.30;99.90;;;;;;5032359;28;20274;-61
2023/11/30 08:45:04;;;;;;;21.23;13.82;;;-0.20;99.90;;;;;;5032171;28;20222;-60
2023/11/30 08:47:32;;;;;;;22.40;13.82;;;-0.30;99.90;;;;;;5033897;28;20213;-60
2023/11/30 08:49:59;;;;;;;23.75;13.48;;;-0.30;99.90;;;;;;5031951;28;20203;-61
2023/11/30 08:52:26;;;;;;;22.73;14.55;;;-0.30;99.90;;;;;;5031903;28;20235;-60
2023/11/30 08:54:54;;;;;;;21.13;13.75;;;-0.30;99.90;;;;;;5031936;28;20712;-60
2023/11/30 08:57:21;;;;;;;21.98;13.48;;;-0.30;99.90;;;;;;5032988;28;20213;-61
2023/11/30 08:59:49;;;;;;;20.42;14.18;;;-0.30;99.90;;;;;;5036087;28;20641;-61
2023/11/30 09:02:16;;;;;;;26.05;14.43;;;-0.20;99.90;;;;;;5036035;28;20202;-60
2023/11/30 09:04:44;;;;;;;23.17;14.68;;;-0.20;99.90;;;;;;5035513;28;20731;-61
2023/11/30 09:07:11;;;;;;;20.42;12.60;;;-0.10;99.90;;;;;;5036351;28;20253;-61
2023/11/30 09:09:38;;;;;;;22.13;14.35;;;0.00;99.90;;;;;;5036214;28;20203;-61
2023/11/30 09:12:05;;;;;;;20.42;14.90;;;0.10;99.90;;;;;;5036059;28;20229;-60
2023/11/30 09:14:32;;;;;;;26.38;14.55;;;0.20;99.90;;;;;;5036152;28;20296;-60
2023/11/30 09:17:00;;;;;;;25.00;14.50;;;0.30;99.90;;;;;;5035527;28;20206;-60
2023/11/30 09:19:26;;;;;;;23.08;12.77;;;0.40;99.90;;;;;;5035977;28;20260;-60
2023/11/30 09:21:54;;;;;;;20.80;13.80;;;0.60;99.90;;;;;;5035357;28;20691;-60
2023/11/30 09:24:22;;;;;;;18.05;13.32;;;0.80;99.90;;;;;;5035537;28;20241;-60
2023/11/30 09:26:51;;;;;;;21.55;14.13;;;1.00;99.90;;;;;;5036636;28;20202;-61
2023/11/30 09:29:17;;;;;;;21.83;13.00;;;1.00;99.90;;;;;;5035713;28;20202;-60
2023/11/30 09:31:44;;;;;;;16.90;12.13;;;1.10;99.90;;;;;;5035854;28;20212;-59
2023/11/30 09:34:12;;;;;;;20.33;13.75;;;1.10;99.90;;;;;;5035532;28;20321;-62
2023/11/30 09:36:39;;;;;;;20.08;13.32;;;1.10;99.90;;;;;;5035473;28;20617;-60
2023/11/30 09:39:08;;;;;;;20.30;12.63;;;1.00;99.90;;;;;;5035310;28;20203;-60
2023/11/30 09:41:36;;;;;;;19.65;12.57;;;1.00;99.90;;;;;;5035769;28;20206;-60
2023/11/30 09:44:03;;;;;;;17.85;13.23;;;1.00;99.90;;;;;;5035364;28;20229;-60
2023/11/30 09:46:31;;;;;;;21.55;13.93;;;1.00;99.90;;;;;;5035422;28;20217;-60
2023/11/30 09:48:58;;;;;;;20.45;13.85;;;1.00;99.90;;;;;;5035298;28;20673;-60
2023/11/30 09:51:27;;;;;;;20.83;12.57;;;1.10;99.90;;;;;;5035563;28;20217;-61
2023/11/30 09:53:55;;;;;;;16.15;12.55;;;1.10;99.90;;;;;;5035096;28;20222;-60
2023/11/30 09:56:23;;;;;;;21.08;13.45;;;1.20;99.90;;;;;;5035089;28;20202;-61
2023/11/30 09:58:50;;;;;;;21.08;13.65;;;1.20;99.90;;;;;;5035223;28;20209;-60
2023/11/30 10:01:17;;;;;;;21.25;14.10;;;1.20;99.90;;;;;;5034914;28;20206;-61
2023/11/30 10:03:43;;;;;;;20.85;13.65;;;1.20;99.90;;;;;;5034369;28;20214;-60
2023/11/30 10:06:12;;;;;;;17.30;12.57;;;1.20;99.90;;;;;;5035021;28;20235;-61
2023/11/30 10:08:39;;;;;;;21.40;13.40;;;1.10;99.90;;;;;;5034768;28;20214;-61
2023/11/30 10:11:07;;;;;;;20.70;13.52;;;1.10;99.90;;;;;;5034881;28;20208;-61
2023/11/30 10:13:36;;;;;;;24.40;14.15;;;1.10;99.90;;;;;;5034659;28;20218;-62
2023/11/30 10:16:04;;;;;;;22.02;14.23;;;1.10;99.90;;;;;;5034135;28;20203;-62
2023/11/30 10:18:33;;;;;;;21.38;14.30;;;1.10;99.90;;;;;;5034738;28;20245;-61
2023/11/30 10:21:00;;;;;;;21.48;13.15;;;1.00;99.90;;;;;;5036508;28;20641;-61
2023/11/30 10:23:27;;;;;;;19.38;13.07;;;1.00;99.90;;;;;;5035965;28;20245;-61
2023/11/30 10:25:55;;;;;;;30.33;14.55;;;1.10;99.90;;;;;;5035354;28;20684;-61
2023/11/30 10:28:22;;;;;;;20.52;13.93;;;1.10;99.90;;;;;;5034990;28;20229;-61
2023/11/30 10:30:53;;;;;;;22.33;14.93;;;1.10;99.90;;;;;;5034673;28;20306;-61
2023/11/30 10:33:22;;;;;;;22.52;15.13;;;1.10;99.90;;;;;;5034829;28;20253;-60
2023/11/30 10:35:51;;;;;;;23.70;14.65;;;1.10;99.90;;;;;;5034243;28;20280;-60
2023/11/30 10:38:22;;;;;;;23.00;14.65;;;1.20;99.90;;;;;;5034338;28;20690;-62
2023/11/30 10:40:51;;;;;;;29.35;15.65;;;1.30;99.90;;;;;;5034989;28;20194;-60
2023/11/30 10:43:18;;;;;;;23.05;15.25;;;1.30;99.90;;;;;;5034733;28;20256;-61
2023/11/30 10:45:47;;;;;;;20.77;14.23;;;1.30;99.90;;;;;;5034197;28;20226;-61
2023/11/30 10:48:17;;;;;;;21.08;14.95;;;1.40;99.90;;;;;;5034247;28;20202;-60
2023/11/30 10:50:44;;;;;;;24.45;14.50;;;1.40;99.90;;;;;;5036033;28;20724;-61
2023/11/30 10:53:20;;;;;;;24.33;16.65;;;1.40;99.90;;;;;;5039072;28;20230;-60
2023/11/30 10:55:47;;;;;;;23.23;16.92;;;1.50;99.90;;;;;;5034661;28;20186;-60
2023/11/30 10:58:20;;;;;;;24.70;15.80;;;1.60;99.90;;;;;;5034213;28;20205;-60
2023/11/30 11:00:55;;;;;;;22.90;15.07;;;1.60;99.90;;;;;;5034259;28;20182;-59
2023/11/30 11:03:24;;;;;;;19.40;14.50;;;1.70;99.90;;;;;;5034243;28;20186;-65
2023/11/30 11:05:52;;;;;;;23.38;14.90;;;1.70;99.90;;;;;;5033573;28;20210;-61
2023/11/30 11:08:19;;;;;;;22.77;15.70;;;1.80;99.90;;;;;;5033674;28;20252;-60
2023/11/30 11:10:47;;;;;;;20.13;15.20;;;2.00;99.90;;;;;;5033643;28;20214;-60
2023/11/30 11:13:18;;;;;;;18.60;14.18;;;2.10;99.90;;;;;;5034105;28;20230;-60
2023/11/30 11:15:56;;;;;;;19.05;15.07;;;2.20;99.90;;;;;;5033857;28;20230;-61
2023/11/30 11:18:30;;;;;;;23.17;13.88;;;2.20;99.90;;;;;;5033959;28;20188;-62
2023/11/30 11:20:58;;;;;;;23.58;15.60;;;2.20;99.90;;;;;;5033051;28;20313;-60
2023/11/30 11:23:24;;;;;;;22.40;14.45;;;2.10;99.90;;;;;;5033650;28;20199;-61
2023/11/30 11:25:51;;;;;;;20.30;14.30;;;2.00;99.90;;;;;;5033519;28;20309;-59
2023/11/30 11:28:19;;;;;;;24.40;15.80;;;2.00;99.90;;;;;;5033897;28;20198;-61
2023/11/30 11:30:48;;;;;;;21.40;14.57;;;2.10;99.90;;;;;;5034235;28;20206;-61
2023/11/30 11:33:16;;;;;;;23.02;14.00;;;2.00;99.90;;;;;;5033875;28;20228;-60
2023/11/30 11:35:45;;;;;;;18.77;14.48;;;2.00;99.90;;;;;;5033652;28;20551;-61
2023/11/30 11:38:12;;;;;;;22.67;17.17;;;1.90;99.90;;;;;;5033846;28;20572;-61
2023/11/30 11:40:41;;;;;;;20.80;14.77;;;1.90;99.90;;;;;;5033583;28;20202;-61
2023/11/30 11:43:08;;;;;;;22.05;16.05;;;1.80;99.90;;;;;;5033661;28;20199;-60
2023/11/30 11:45:36;;;;;;;24.92;16.55;;;1.80;99.90;;;;;;5033604;28;20226;-61
2023/11/30 11:48:04;;;;;;;23.33;14.90;;;1.80;99.90;;;;;;5032912;28;20704;-61
2023/11/30 11:50:30;;;;;;;18.25;13.27;;;1.80;99.90;;;;;;5033240;28;20205;-61
2023/11/30 11:53:03;;;;;;;22.88;14.88;;;1.80;99.90;;;;;;5032824;28;20225;-60
2023/11/30 11:55:30;;;;;;;18.85;13.93;;;1.80;99.90;;;;;;5033187;28;20222;-60
2023/11/30 11:57:57;;;;;;;24.27;15.70;;;1.80;99.90;;;;;;5033445;28;20580;-61
2023/11/30 12:00:25;;;;;;;21.30;13.38;;;1.80;99.90;;;;;;5034965;28;20209;-62
2023/11/30 12:02:53;;;;;;;18.70;12.90;;;1.80;99.90;;;;;;5035033;28;20198;-61
2023/11/30 12:05:25;;;;;;;18.73;13.18;;;1.80;99.90;;;;;;5033392;28;20737;-62
2023/11/30 12:07:53;;;;;;;21.98;14.32;;;1.90;99.90;;;;;;5032997;28;20199;-61
2023/11/30 12:10:29;;;;;;;22.63;15.00;;;1.90;99.90;;;;;;5033227;28;20212;-61
2023/11/30 12:12:57;;;;;;;19.88;13.75;;;2.00;99.90;;;;;;5032525;28;20722;-61
2023/11/30 12:15:24;;;;;;;18.17;13.52;;;2.00;99.90;;;;;;5032860;28;20222;-60
2023/11/30 12:17:51;;;;;;;23.23;15.27;;;2.00;99.90;;;;;;5033114;28;20201;-61
2023/11/30 12:20:18;;;;;;;21.83;13.85;;;2.00;99.90;;;;;;5032913;28;20213;-62
2023/11/30 12:22:45;;;;;;;20.10;14.10;;;2.00;99.90;;;;;;5032503;28;20645;-60
2023/11/30 12:25:11;;;;;;;20.35;14.50;;;2.10;99.90;;;;;;5032463;28;20244;-61
2023/11/30 12:27:40;;;;;;;21.50;13.70;;;2.10;99.90;;;;;;5032511;28;20266;-60
2023/11/30 12:30:08;;;;;;;18.75;14.70;;;2.20;99.90;;;;;;5032528;28;20568;-61
2023/11/30 12:32:35;;;;;;;21.98;14.70;;;2.20;99.90;;;;;;5033236;28;20259;-60
2023/11/30 12:35:02;;;;;;;20.55;14.32;;;2.20;99.90;;;;;;5036395;28;20230;-61
2023/11/30 12:37:29;;;;;;;19.70;15.32;;;2.30;99.90;;;;;;5036514;28;20212;-61